createdAt,value
2022-12-25T00:01:47.779Z,2.71
2022-12-25T00:03:50.754Z,2.72
2022-12-25T00:05:54.763Z,2.75
2022-12-25T00:08:00.668Z,2.74
2022-12-25T00:10:02.595Z,2.78
2022-12-25T00:12:04.579Z,2.77
2022-12-25T00:14:08.557Z,2.75
2022-12-25T00:16:25.609Z,2.75
2022-12-25T00:18:28.582Z,2.74
2022-12-25T00:20:31.516Z,2.75
2022-12-25T00:22:33.442Z,2.73
2022-12-25T00:24:42.092Z,2.77
2022-12-25T00:26:43.959Z,2.73
2022-12-25T00:28:45.897Z,2.72
2022-12-25T00:30:50.342Z,2.72
2022-12-25T00:32:55.348Z,2.76
2022-12-25T00:35:04.350Z,2.78
2022-12-25T00:37:11.731Z,2.80
2022-12-25T00:39:15.715Z,2.80
2022-12-25T00:41:40.654Z,2.81
2022-12-25T00:43:42.817Z,2.80
2022-12-25T00:45:58.798Z,2.81
2022-12-25T00:48:00.912Z,2.81
2022-12-25T00:50:02.794Z,2.77
2022-12-25T00:52:05.496Z,2.76
2022-12-25T00:54:08.578Z,2.77
2022-12-25T00:56:11.667Z,2.75
2022-12-25T00:58:22.655Z,2.75
2022-12-25T01:00:25.631Z,2.77
2022-12-25T01:02:27.739Z,2.79
2022-12-25T01:04:35.717Z,2.79
2022-12-25T01:06:37.659Z,2.79
2022-12-25T01:09:04.012Z,2.78
2022-12-25T01:11:08.080Z,2.80
2022-12-25T01:13:10.986Z,2.80
2022-12-25T01:15:14.340Z,2.79
2022-12-25T01:17:19.497Z,2.80
2022-12-25T01:19:21.387Z,2.80
2022-12-25T01:21:25.774Z,2.79
2022-12-25T01:23:28.802Z,2.78
2022-12-25T01:25:30.733Z,2.77
2022-12-25T01:27:41.924Z,2.77
2022-12-25T01:29:49.982Z,2.79
2022-12-25T01:31:55.110Z,2.79
2022-12-25T01:33:57.027Z,2.77
2022-12-25T01:35:59.921Z,2.80
2022-12-25T01:38:01.892Z,2.79
2022-12-25T01:40:09.882Z,2.78
2022-12-25T01:42:19.640Z,2.76
2022-12-25T01:44:38.646Z,2.77
2022-12-25T01:46:43.065Z,2.80
2022-12-25T01:48:45.988Z,2.78
2022-12-25T01:50:59.294Z,2.82
2022-12-25T01:53:04.418Z,2.80
2022-12-25T01:55:18.530Z,2.81
2022-12-25T01:57:25.999Z,2.79
2022-12-25T01:59:30.092Z,2.81
2022-12-25T02:01:32.456Z,2.80
2022-12-25T02:03:34.719Z,2.83
2022-12-25T02:05:38.850Z,2.82
2022-12-25T02:07:42.508Z,2.80
2022-12-25T02:09:47.364Z,2.78
2022-12-25T02:11:58.080Z,2.80
2022-12-25T02:14:00.131Z,2.76
2022-12-25T02:16:21.204Z,2.79
2022-12-25T02:18:36.195Z,2.72
2022-12-25T02:20:43.026Z,2.74
2022-12-25T02:23:11.007Z,2.73
2022-12-25T02:25:39.664Z,2.74
2022-12-25T02:28:03.424Z,2.71
2022-12-25T02:30:09.033Z,2.75
2022-12-25T02:32:13.787Z,2.71
2022-12-25T02:34:25.772Z,2.70
2022-12-25T02:36:50.344Z,2.71
2022-12-25T02:39:30.372Z,2.72
2022-12-25T02:41:37.461Z,2.72
2022-12-25T02:44:03.093Z,2.71
2022-12-25T02:46:48.496Z,2.72
2022-12-25T02:49:13.410Z,2.72
2022-12-25T02:51:36.896Z,2.72
2022-12-25T02:54:00.183Z,2.73
2022-12-25T02:56:20.861Z,2.73
2022-12-25T02:58:45.417Z,2.77
2022-12-25T03:01:20.410Z,2.77
2022-12-25T03:03:51.310Z,2.77
2022-12-25T03:06:16.377Z,2.79
2022-12-25T03:08:42.967Z,2.78
2022-12-25T03:11:14.653Z,2.79
2022-12-25T03:13:21.929Z,2.81
2022-12-25T03:15:48.698Z,2.82
2022-12-25T03:17:52.121Z,2.82
2022-12-25T03:20:13.437Z,2.81
2022-12-25T03:22:49.077Z,2.83
2022-12-25T03:25:15.391Z,2.84
2022-12-25T03:27:20.460Z,2.85
2022-12-25T03:29:52.776Z,2.86
2022-12-25T03:32:19.504Z,2.87
2022-12-25T03:34:42.837Z,2.88
2022-12-25T03:37:20.687Z,2.87
2022-12-25T03:39:56.516Z,2.86
2022-12-25T03:42:20.615Z,2.86
2022-12-25T03:44:54.412Z,2.88
2022-12-25T03:47:35.471Z,2.88
2022-12-25T03:50:09.695Z,2.90
2022-12-25T03:52:34.574Z,2.90
2022-12-25T03:54:57.393Z,2.91
2022-12-25T03:57:18.956Z,2.90
2022-12-25T03:59:46.655Z,2.91
2022-12-25T04:02:09.423Z,2.93
2022-12-25T04:04:34.091Z,2.93
2022-12-25T04:06:57.956Z,2.94
2022-12-25T04:09:20.300Z,2.95
2022-12-25T04:11:41.592Z,2.96
2022-12-25T04:14:08.309Z,3.00
2022-12-25T04:16:34.764Z,3.01
2022-12-25T04:18:56.443Z,2.99
2022-12-25T04:21:16.947Z,3.01
2022-12-25T04:23:53.330Z,3.07
2022-12-25T04:26:16.784Z,3.03
2022-12-25T04:28:38.303Z,3.03
2022-12-25T04:31:01.020Z,3.01
2022-12-25T04:33:23.235Z,3.03
2022-12-25T04:35:43.678Z,3.04
2022-12-25T04:37:45.612Z,3.05
2022-12-25T04:39:47.673Z,3.03
2022-12-25T04:41:50.562Z,3.07
2022-12-25T04:43:53.494Z,3.07
2022-12-25T04:45:56.437Z,3.10
2022-12-25T04:48:01.352Z,3.12
2022-12-25T04:50:03.381Z,3.15
2022-12-25T04:52:05.667Z,3.16
2022-12-25T04:54:07.631Z,3.15
2022-12-25T04:56:09.864Z,3.12
2022-12-25T04:58:24.011Z,3.11
2022-12-25T05:00:26.941Z,3.14
2022-12-25T05:02:34.779Z,3.15
2022-12-25T05:04:36.824Z,3.14
2022-12-25T05:06:40.932Z,3.14
2022-12-25T05:08:44.326Z,3.13
2022-12-25T05:10:47.509Z,3.11
2022-12-25T05:12:50.432Z,3.16
2022-12-25T05:14:56.472Z,3.18
2022-12-25T05:16:58.343Z,3.20
2022-12-25T05:19:00.307Z,3.16
2022-12-25T05:21:08.289Z,3.20
2022-12-25T05:23:12.371Z,3.23
2022-12-25T05:25:14.411Z,3.22
2022-12-25T05:27:16.520Z,3.22
2022-12-25T05:29:18.383Z,3.21
2022-12-25T05:31:20.538Z,3.19
2022-12-25T05:33:25.499Z,3.17
2022-12-25T05:35:31.561Z,3.20
2022-12-25T05:37:37.732Z,3.19
2022-12-25T05:39:46.665Z,3.22
2022-12-25T05:41:49.667Z,3.24
2022-12-25T05:43:52.739Z,3.29
2022-12-25T05:45:55.276Z,3.33
2022-12-25T05:48:07.226Z,3.31
2022-12-25T05:50:15.393Z,3.32
2022-12-25T05:52:18.299Z,3.33
2022-12-25T05:54:28.191Z,3.34
2022-12-25T05:56:37.930Z,3.38
2022-12-25T05:58:40.905Z,3.40
2022-12-25T06:00:54.791Z,3.37
2022-12-25T06:02:56.913Z,3.40
2022-12-25T06:04:58.839Z,3.38
2022-12-25T06:07:00.748Z,3.39
2022-12-25T06:09:19.823Z,3.41
2022-12-25T06:11:21.792Z,3.39
2022-12-25T06:13:23.721Z,3.42
2022-12-25T06:15:30.275Z,3.42
2022-12-25T06:17:33.356Z,3.41
2022-12-25T06:19:36.288Z,3.43
2022-12-25T06:21:38.204Z,3.41
2022-12-25T06:23:47.552Z,3.42
2022-12-25T06:25:51.595Z,3.41
2022-12-25T06:27:53.545Z,3.43
2022-12-25T06:29:55.439Z,3.42
2022-12-25T06:31:57.644Z,3.42
2022-12-25T06:33:59.563Z,3.42
2022-12-25T06:36:08.951Z,3.43
2022-12-25T06:38:16.933Z,3.42
2022-12-25T06:40:24.827Z,3.43
2022-12-25T06:42:28.717Z,3.41
2022-12-25T06:44:36.549Z,3.42
2022-12-25T06:46:38.458Z,3.39
2022-12-25T06:48:49.577Z,3.40
2022-12-25T06:50:59.197Z,3.39
2022-12-25T06:53:26.101Z,3.41
2022-12-25T06:55:28.996Z,3.41
2022-12-25T06:57:32.665Z,3.40
2022-12-25T06:59:40.328Z,3.42
2022-12-25T07:01:57.797Z,3.42
2022-12-25T07:04:05.851Z,3.43
2022-12-25T07:06:08.812Z,3.45
2022-12-25T07:08:11.790Z,3.43
2022-12-25T07:10:17.007Z,3.46
2022-12-25T07:12:21.985Z,3.45
2022-12-25T07:14:25.912Z,3.46
2022-12-25T07:16:46.632Z,3.48
2022-12-25T07:18:49.491Z,3.47
2022-12-25T07:20:55.886Z,3.49
2022-12-25T07:23:00.873Z,3.50
2022-12-25T07:25:03.813Z,3.50
2022-12-25T07:27:07.088Z,3.51
2022-12-25T07:29:08.930Z,3.50
2022-12-25T07:31:14.865Z,3.50
2022-12-25T07:33:17.669Z,3.52
2022-12-25T07:35:19.543Z,3.52
2022-12-25T07:37:21.423Z,3.54
2022-12-25T07:39:23.991Z,3.55
2022-12-25T07:41:26.289Z,3.59
2022-12-25T07:43:28.335Z,3.59
2022-12-25T07:45:30.348Z,3.57
2022-12-25T07:47:32.490Z,3.62
2022-12-25T07:49:34.453Z,3.63
2022-12-25T07:51:36.279Z,3.62
2022-12-25T07:53:39.167Z,3.63
2022-12-25T07:55:41.046Z,3.65
2022-12-25T07:57:42.931Z,3.64
2022-12-25T07:59:44.886Z,3.62
2022-12-25T08:01:50.637Z,3.61
2022-12-25T08:04:01.759Z,3.61
2022-12-25T08:06:08.076Z,3.62
2022-12-25T08:08:10.950Z,3.62
2022-12-25T08:10:12.880Z,3.63
2022-12-25T08:12:14.859Z,3.65
2022-12-25T08:14:16.808Z,3.64
2022-12-25T08:16:18.830Z,3.66
2022-12-25T08:18:23.392Z,3.67
2022-12-25T08:20:30.731Z,3.69
2022-12-25T08:22:32.702Z,3.72
2022-12-25T08:24:34.620Z,3.74
2022-12-25T08:26:36.630Z,3.76
2022-12-25T08:28:45.485Z,3.75
2022-12-25T08:30:48.442Z,3.75
2022-12-25T08:32:50.399Z,3.78
2022-12-25T08:34:52.309Z,3.78
2022-12-25T08:36:54.128Z,3.79
2022-12-25T08:39:02.458Z,3.78
2022-12-25T08:41:05.275Z,3.77
2022-12-25T08:43:07.389Z,3.81
2022-12-25T08:45:10.101Z,3.81
2022-12-25T08:47:14.023Z,3.85
2022-12-25T08:49:16.636Z,3.86
2022-12-25T08:51:21.391Z,3.88
2022-12-25T08:53:23.848Z,3.88
2022-12-25T08:55:25.916Z,3.89
2022-12-25T08:57:28.953Z,3.89
2022-12-25T08:59:31.167Z,3.90
2022-12-25T09:01:34.253Z,3.92
2022-12-25T09:03:36.598Z,3.95
2022-12-25T09:05:39.485Z,3.92
2022-12-25T09:07:47.699Z,3.93
2022-12-25T09:09:49.654Z,3.95
2022-12-25T09:11:51.547Z,3.93
2022-12-25T09:13:53.528Z,3.92
2022-12-25T09:15:57.754Z,3.92
2022-12-25T09:17:59.755Z,3.94
2022-12-25T09:20:01.740Z,3.94
2022-12-25T09:22:03.758Z,3.95
2022-12-25T09:24:05.935Z,3.93
2022-12-25T09:26:10.681Z,3.92
2022-12-25T09:28:12.708Z,3.94
2022-12-25T09:30:15.207Z,3.91
2022-12-25T09:32:17.734Z,3.92
2022-12-25T09:34:20.671Z,3.97
2022-12-25T09:36:23.625Z,3.95
2022-12-25T09:38:25.995Z,3.96
2022-12-25T09:40:32.738Z,3.97
2022-12-25T09:42:34.893Z,3.99
2022-12-25T09:44:47.924Z,4.01
2022-12-25T09:47:21.109Z,3.97
2022-12-25T09:49:46.102Z,3.99
2022-12-25T09:51:53.990Z,3.99
2022-12-25T09:54:04.520Z,4.08
2022-12-25T09:56:17.865Z,4.05
2022-12-25T09:58:19.812Z,4.10
2022-12-25T10:00:24.692Z,4.02
2022-12-25T10:03:00.286Z,4.04
2022-12-25T10:05:18.440Z,4.04
2022-12-25T10:07:38.896Z,3.98
2022-12-25T10:10:05.571Z,4.10
2022-12-25T10:12:30.808Z,4.09
2022-12-25T10:14:41.429Z,4.06
2022-12-25T10:16:49.049Z,4.02
2022-12-25T10:19:05.857Z,4.02
2022-12-25T10:21:13.961Z,4.08
2022-12-25T10:23:26.465Z,4.08
2022-12-25T10:25:28.594Z,4.13
2022-12-25T10:27:35.384Z,4.10
2022-12-25T10:29:39.941Z,4.09
2022-12-25T10:31:47.047Z,4.10
2022-12-25T10:33:51.348Z,4.10
2022-12-25T10:35:53.402Z,4.05
2022-12-25T10:38:02.702Z,4.06
2022-12-25T10:40:28.059Z,4.04
2022-12-25T10:42:31.053Z,4.05
2022-12-25T10:44:34.829Z,4.05
2022-12-25T10:46:38.224Z,4.04
2022-12-25T10:48:46.480Z,4.06
2022-12-25T10:50:49.293Z,4.08
2022-12-25T10:52:59.632Z,4.09
2022-12-25T10:55:13.652Z,4.02
2022-12-25T10:57:18.736Z,4.00
2022-12-25T10:59:21.808Z,4.01
2022-12-25T11:01:28.401Z,3.99
2022-12-25T11:03:44.435Z,3.93
2022-12-25T11:05:51.522Z,3.97
2022-12-25T11:07:57.184Z,3.96
2022-12-25T11:10:17.181Z,3.95
2022-12-25T11:12:31.252Z,3.99
2022-12-25T11:14:35.958Z,3.98
2022-12-25T11:16:40.353Z,3.92
2022-12-25T11:18:50.573Z,3.98
2022-12-25T11:20:58.400Z,4.02
2022-12-25T11:23:02.410Z,4.04
2022-12-25T11:25:15.321Z,4.04
2022-12-25T11:27:30.699Z,4.06
2022-12-25T11:29:51.504Z,4.02
2022-12-25T11:31:55.709Z,4.07
2022-12-25T11:34:03.620Z,4.16
2022-12-25T11:36:16.101Z,4.15
2022-12-25T11:38:18.093Z,4.08
2022-12-25T11:40:27.916Z,4.12
2022-12-25T11:42:42.259Z,4.15
2022-12-25T11:45:07.724Z,4.09
2022-12-25T11:48:08.418Z,4.09
2022-12-25T11:50:27.497Z,4.08
2022-12-25T11:52:34.350Z,4.10
2022-12-25T11:54:50.743Z,4.09
2022-12-25T11:56:53.231Z,4.08
2022-12-25T11:59:02.677Z,4.10
2022-12-25T12:01:30.458Z,4.11
2022-12-25T12:03:41.463Z,4.05
2022-12-25T12:06:10.444Z,4.09
2022-12-25T12:08:14.610Z,4.05
2022-12-25T12:10:21.855Z,4.01
2022-12-25T12:12:48.832Z,3.99
2022-12-25T12:15:03.927Z,3.96
2022-12-25T12:17:10.244Z,4.02
2022-12-25T12:19:24.248Z,4.04
2022-12-25T12:21:30.216Z,4.01
2022-12-25T12:23:57.741Z,3.99
2022-12-25T12:26:01.324Z,3.97
2022-12-25T12:28:05.788Z,3.96
2022-12-25T12:30:24.535Z,4.01
2022-12-25T12:32:49.795Z,4.00
2022-12-25T12:34:51.920Z,4.01
2022-12-25T12:37:02.008Z,4.00
2022-12-25T12:39:06.221Z,3.99
2022-12-25T12:41:09.913Z,3.98
2022-12-25T12:43:40.432Z,3.92
2022-12-25T12:45:43.537Z,4.05
2022-12-25T12:47:50.939Z,4.07
2022-12-25T12:49:59.400Z,4.10
2022-12-25T12:52:26.341Z,4.10
2022-12-25T12:54:28.300Z,4.16
2022-12-25T12:56:30.280Z,4.13
2022-12-25T12:58:35.888Z,4.11
2022-12-25T13:00:49.145Z,4.05
2022-12-25T13:03:26.841Z,4.13
2022-12-25T13:05:46.339Z,4.20
2022-12-25T13:07:54.995Z,4.19
2022-12-25T13:10:24.361Z,4.25
2022-12-25T13:12:29.555Z,4.23
2022-12-25T13:14:31.594Z,4.23
2022-12-25T13:16:46.688Z,4.31
2022-12-25T13:18:53.878Z,4.25
2022-12-25T13:21:04.624Z,4.30
2022-12-25T13:23:26.683Z,4.33
2022-12-25T13:25:28.877Z,4.30
2022-12-25T13:27:33.144Z,4.29
2022-12-25T13:29:39.364Z,4.32
2022-12-25T13:31:42.236Z,4.38
2022-12-25T13:34:05.137Z,4.40
2022-12-25T13:36:17.259Z,4.37
2022-12-25T13:38:28.553Z,4.38
2022-12-25T13:40:34.957Z,4.37
2022-12-25T13:42:40.119Z,4.33
2022-12-25T13:44:59.202Z,4.29
2022-12-25T13:47:19.741Z,4.26
2022-12-25T13:49:32.011Z,4.26
2022-12-25T13:51:37.557Z,4.27
2022-12-25T13:53:40.819Z,4.26
2022-12-25T13:58:05.824Z,4.18
2022-12-25T14:00:20.853Z,4.16
2022-12-25T14:02:35.354Z,4.15
2022-12-25T14:04:45.059Z,4.15
2022-12-25T14:06:51.028Z,4.15
2022-12-25T14:08:55.086Z,4.14
2022-12-25T14:10:57.476Z,4.14
2022-12-25T14:13:05.911Z,4.13
2022-12-25T14:15:16.245Z,4.13
2022-12-25T14:17:18.864Z,4.18
2022-12-25T14:19:34.779Z,4.16
2022-12-25T14:21:49.471Z,4.14
2022-12-25T14:23:51.972Z,4.19
2022-12-25T14:25:54.340Z,4.15
2022-12-25T14:28:14.156Z,4.15
2022-12-25T14:30:16.761Z,4.17
2022-12-25T14:32:23.013Z,4.16
2022-12-25T14:34:30.272Z,4.14
2022-12-25T14:36:35.111Z,4.12
2022-12-25T14:38:39.171Z,4.11
2022-12-25T14:40:45.445Z,4.15
2022-12-25T14:43:20.522Z,4.16
2022-12-25T14:45:28.430Z,4.16
2022-12-25T14:47:35.418Z,4.16
2022-12-25T14:49:38.294Z,4.18
2022-12-25T14:51:40.211Z,4.16
2022-12-25T14:53:50.765Z,4.14
2022-12-25T14:55:55.138Z,4.13
2022-12-25T14:58:07.939Z,4.14
2022-12-25T15:00:37.952Z,4.11
2022-12-25T15:02:45.886Z,4.11
2022-12-25T15:04:48.143Z,4.08
2022-12-25T15:06:54.523Z,4.08
2022-12-25T15:09:06.951Z,4.07
2022-12-25T15:11:10.061Z,4.06
2022-12-25T15:13:15.821Z,3.98
2022-12-25T15:15:17.931Z,3.95
2022-12-25T15:17:26.917Z,3.93
2022-12-25T15:19:38.106Z,3.87
2022-12-25T15:21:40.615Z,3.87
2022-12-25T15:23:43.951Z,3.83
2022-12-25T15:25:47.619Z,3.81
2022-12-25T15:27:51.645Z,3.80
2022-12-25T15:30:10.673Z,3.79
2022-12-25T15:32:23.060Z,3.80
2022-12-25T15:34:25.993Z,3.76
2022-12-25T15:36:29.281Z,3.79
2022-12-25T15:38:39.713Z,3.79
2022-12-25T15:40:42.261Z,3.78
2022-12-25T15:42:45.341Z,3.79
2022-12-25T15:44:47.424Z,3.79
2022-12-25T15:46:49.869Z,3.77
2022-12-25T15:48:53.159Z,3.75
2022-12-25T15:50:57.105Z,3.76
2022-12-25T15:53:00.365Z,3.76
2022-12-25T15:55:07.380Z,3.77
2022-12-25T15:57:22.807Z,3.75
2022-12-25T15:59:27.196Z,3.77
2022-12-25T16:01:29.257Z,3.75
2022-12-25T16:03:31.664Z,3.75
2022-12-25T16:05:35.737Z,3.76
2022-12-25T16:07:38.774Z,3.78
2022-12-25T16:09:49.549Z,3.75
2022-12-25T16:11:53.895Z,3.77
2022-12-25T16:13:56.881Z,3.78
2022-12-25T16:15:59.142Z,3.78
2022-12-25T16:18:03.674Z,3.78
2022-12-25T16:20:06.635Z,3.81
2022-12-25T16:22:14.508Z,3.83
2022-12-25T16:24:16.722Z,3.82
2022-12-25T16:26:18.730Z,3.84
2022-12-25T16:28:20.636Z,3.84
2022-12-25T16:30:22.616Z,3.86
2022-12-25T16:32:24.682Z,3.86
2022-12-25T16:34:26.671Z,3.85
2022-12-25T16:36:28.692Z,3.88
2022-12-25T16:38:31.892Z,3.86
2022-12-25T16:40:34.434Z,3.87
2022-12-25T16:42:38.402Z,3.88
2022-12-25T16:44:41.361Z,3.86
2022-12-25T16:46:53.440Z,3.86
2022-12-25T16:49:07.452Z,3.86
2022-12-25T16:51:16.117Z,3.87
2022-12-25T16:53:19.153Z,3.86
2022-12-25T16:55:27.790Z,3.86
2022-12-25T16:57:33.781Z,3.84
2022-12-25T16:59:36.149Z,3.84
2022-12-25T17:01:45.877Z,3.86
2022-12-25T17:03:48.914Z,3.87
2022-12-25T17:05:50.935Z,3.85
2022-12-25T17:07:53.021Z,3.84
2022-12-25T17:09:57.453Z,3.81
2022-12-25T17:11:59.461Z,3.79
2022-12-25T17:14:03.833Z,3.77
2022-12-25T17:16:16.859Z,3.76
2022-12-25T17:18:22.204Z,3.76
2022-12-25T17:20:24.226Z,3.75
2022-12-25T17:22:26.246Z,3.74
2022-12-25T17:24:30.098Z,3.73
2022-12-25T17:26:33.136Z,3.72
2022-12-25T17:28:35.178Z,3.72
2022-12-25T17:30:37.136Z,3.70
2022-12-25T17:32:42.041Z,3.68
2022-12-25T17:34:43.967Z,3.68
2022-12-25T17:36:46.088Z,3.67
2022-12-25T17:38:50.339Z,3.67
2022-12-25T17:40:59.358Z,3.66
2022-12-25T17:43:01.421Z,3.65
2022-12-25T17:45:03.638Z,3.64
2022-12-25T17:47:05.812Z,3.63
2022-12-25T17:49:08.813Z,3.61
2022-12-25T17:51:14.475Z,3.63
2022-12-25T17:53:16.612Z,3.58
2022-12-25T17:55:19.246Z,3.57
2022-12-25T17:57:21.319Z,3.56
2022-12-25T17:59:28.669Z,3.54
2022-12-25T18:01:30.745Z,3.50
2022-12-25T18:03:33.537Z,3.50
2022-12-25T18:05:36.717Z,3.46
2022-12-25T18:07:38.817Z,3.39
2022-12-25T18:09:40.817Z,3.38
2022-12-25T18:11:43.782Z,3.38
2022-12-25T18:13:50.039Z,3.34
2022-12-25T18:15:52.228Z,3.32
2022-12-25T18:17:54.373Z,3.31
2022-12-25T18:19:56.494Z,3.28
2022-12-25T18:21:58.458Z,3.28
2022-12-25T18:24:06.089Z,3.27
2022-12-25T18:26:12.150Z,3.24
2022-12-25T18:28:14.305Z,3.23
2022-12-25T18:30:17.509Z,3.22
2022-12-25T18:32:26.296Z,3.20
2022-12-25T18:34:30.984Z,3.20
2022-12-25T18:36:33.179Z,3.18
2022-12-25T18:38:35.808Z,3.17
2022-12-25T18:40:49.334Z,3.16
2022-12-25T18:42:59.404Z,3.11
2022-12-25T18:45:12.774Z,3.10
2022-12-25T18:47:15.768Z,3.08
2022-12-25T18:49:18.814Z,3.06
2022-12-25T18:51:36.874Z,3.02
2022-12-25T18:53:41.495Z,3.01
2022-12-25T18:55:43.635Z,2.97
2022-12-25T18:57:47.090Z,2.96
2022-12-25T18:59:49.152Z,2.95
2022-12-25T19:01:51.268Z,2.94
2022-12-25T19:03:57.297Z,2.91
2022-12-25T19:06:04.277Z,2.89
2022-12-25T19:08:06.700Z,2.89
2022-12-25T19:10:10.545Z,2.87
2022-12-25T19:12:13.442Z,2.85
2022-12-25T19:14:15.894Z,2.88
2022-12-25T19:16:18.383Z,2.87
2022-12-25T19:18:29.368Z,2.88
2022-12-25T19:20:31.545Z,2.89
2022-12-25T19:22:33.569Z,2.87
2022-12-25T19:24:37.212Z,2.88
2022-12-25T19:26:39.278Z,2.85
2022-12-25T19:28:41.615Z,2.83
2022-12-25T19:30:43.978Z,2.83
2022-12-25T19:32:52.442Z,2.82
2022-12-25T19:34:55.652Z,2.83
2022-12-25T19:37:00.264Z,2.79
2022-12-25T19:39:07.843Z,2.78
2022-12-25T19:41:15.674Z,2.77
2022-12-25T19:43:17.700Z,2.74
2022-12-25T19:45:19.872Z,2.72
2022-12-25T19:47:23.984Z,2.70
2022-12-25T19:49:26.104Z,2.70
2022-12-25T19:51:29.857Z,2.70
2022-12-25T19:53:32.034Z,2.68
2022-12-25T19:55:34.297Z,2.68
2022-12-25T19:57:37.561Z,2.67
2022-12-25T19:59:41.301Z,2.65
2022-12-25T20:01:43.971Z,2.65
2022-12-25T20:03:48.331Z,2.63
2022-12-25T20:05:52.208Z,2.64
2022-12-25T20:07:56.747Z,2.61
2022-12-25T20:10:02.300Z,2.62
2022-12-25T20:12:04.533Z,2.60
2022-12-25T20:14:08.751Z,2.59
2022-12-25T20:16:10.878Z,2.58
2022-12-25T20:18:13.144Z,2.58
2022-12-25T20:20:17.624Z,2.57
2022-12-25T20:22:21.096Z,2.59
2022-12-25T20:24:26.412Z,2.56
2022-12-25T20:26:31.316Z,2.55
2022-12-25T20:28:36.672Z,2.56
2022-12-25T20:30:40.082Z,2.57
2022-12-25T20:32:46.561Z,2.57
2022-12-25T20:34:52.453Z,2.56
2022-12-25T20:36:58.579Z,2.56
2022-12-25T20:39:06.015Z,2.56
2022-12-25T20:41:30.052Z,2.54
2022-12-25T20:43:45.107Z,2.55
2022-12-25T20:45:51.589Z,2.53
2022-12-25T20:47:53.629Z,2.53
2022-12-25T20:49:55.967Z,2.52
2022-12-25T20:52:04.556Z,2.51
2022-12-25T20:54:12.752Z,2.51
2022-12-25T20:56:18.267Z,2.50
2022-12-25T20:58:27.048Z,2.50
2022-12-25T21:00:30.242Z,2.51
2022-12-25T21:02:36.571Z,2.51
2022-12-25T21:04:38.891Z,2.51
2022-12-25T21:06:41.966Z,2.49
2022-12-25T21:08:46.051Z,2.50
2022-12-25T21:10:52.726Z,2.51
2022-12-25T21:12:54.769Z,2.54
2022-12-25T21:14:56.785Z,2.55
2022-12-25T21:16:59.934Z,2.60
2022-12-25T21:19:06.247Z,2.60
2022-12-25T21:21:09.189Z,2.64
2022-12-25T21:23:11.140Z,2.66
2022-12-25T21:25:13.202Z,2.73
2022-12-25T21:27:17.155Z,2.78
2022-12-25T21:29:23.061Z,2.80
2022-12-25T21:31:26.631Z,2.84
2022-12-25T21:33:48.062Z,2.90
2022-12-25T21:35:50.353Z,2.91
2022-12-25T21:37:52.367Z,2.94
2022-12-25T21:39:54.551Z,2.88
2022-12-25T21:41:56.535Z,2.91
2022-12-25T21:44:00.148Z,2.94
2022-12-25T21:46:10.247Z,2.92
2022-12-25T21:48:14.618Z,2.97
2022-12-25T21:50:39.278Z,2.93
2022-12-25T21:52:41.523Z,2.94
2022-12-25T21:54:43.638Z,3.01
2022-12-25T21:56:47.519Z,2.93
2022-12-25T21:58:51.714Z,2.85
2022-12-25T22:00:54.214Z,2.84
2022-12-25T22:02:56.495Z,2.81
2022-12-25T22:04:58.804Z,2.81
2022-12-25T22:07:19.024Z,2.84
2022-12-25T22:09:21.557Z,2.84
2022-12-25T22:11:43.253Z,2.81
2022-12-25T22:14:03.909Z,2.86
2022-12-25T22:16:26.645Z,2.83
2022-12-25T22:18:47.321Z,2.85
2022-12-25T22:20:49.323Z,2.83
2022-12-25T22:22:53.315Z,2.86
2022-12-25T22:25:00.302Z,2.85
2022-12-25T22:27:05.324Z,2.86
2022-12-25T22:29:07.315Z,2.86
2022-12-25T22:31:09.499Z,2.86
2022-12-25T22:33:11.701Z,2.85
2022-12-25T22:35:15.209Z,2.85
2022-12-25T22:37:19.639Z,2.87
2022-12-25T22:39:21.579Z,2.85
2022-12-25T22:41:27.014Z,2.87
2022-12-25T22:44:06.357Z,2.89
2022-12-25T22:45:54.141Z,2.88
2022-12-25T22:47:57.086Z,2.91
2022-12-25T22:50:00.084Z,2.91
2022-12-25T22:52:02.826Z,2.90
2022-12-25T22:54:05.489Z,2.89
2022-12-25T22:56:11.331Z,2.90
2022-12-25T22:58:14.789Z,2.88
2022-12-25T23:00:16.978Z,2.87
2022-12-25T23:02:20.402Z,2.87
2022-12-25T23:04:23.030Z,2.85
2022-12-25T23:06:25.131Z,2.88
2022-12-25T23:08:29.073Z,2.84
2022-12-25T23:10:32.062Z,2.88
2022-12-25T23:12:53.770Z,2.86
2022-12-25T23:14:57.227Z,2.87
2022-12-25T23:16:59.972Z,2.88
2022-12-25T23:19:20.329Z,2.90
2022-12-25T23:21:41.015Z,2.93
2022-12-25T23:24:01.510Z,2.94
2022-12-25T23:26:10.420Z,2.91
2022-12-25T23:28:12.346Z,2.91
2022-12-25T23:30:16.987Z,2.93
2022-12-25T23:32:24.936Z,2.96
2022-12-25T23:34:26.923Z,2.95
2022-12-25T23:36:28.801Z,2.94
2022-12-25T23:38:31.821Z,2.93
2022-12-25T23:40:33.745Z,2.95
2022-12-25T23:42:35.693Z,2.96
2022-12-25T23:44:37.625Z,2.99
2022-12-25T23:46:40.772Z,2.94
2022-12-25T23:48:42.688Z,2.95
2022-12-25T23:50:44.615Z,2.93
2022-12-25T23:52:46.467Z,2.95
2022-12-25T23:54:48.385Z,2.94
2022-12-25T23:56:50.773Z,2.95
2022-12-25T23:58:52.695Z,2.98
